sensor_id;sensor_type;location;lat;lon;timestamp;pressure;altitude;pressure_sealevel;temperature;humidity
17438;BME280;73152;52.198;5.422;2024-02-23T00:02:06;98447.81;;;20.13;44.85
17438;BME280;73152;52.198;5.422;2024-02-23T00:04:35;98450.81;;;20.17;45.33
17438;BME280;73152;52.198;5.422;2024-02-23T00:07:04;98452.19;;;20.19;44.09
17438;BME280;73152;52.198;5.422;2024-02-23T00:09:33;98457.44;;;20.09;45.77
17438;BME280;73152;52.198;5.422;2024-02-23T00:12:03;98466.06;;;20.11;45.93
17438;BME280;73152;52.198;5.422;2024-02-23T00:14:36;98460.69;;;20.11;46.09
17438;BME280;73152;52.198;5.422;2024-02-23T00:17:06;98468.09;;;20.21;45.22
17438;BME280;73152;52.198;5.422;2024-02-23T00:19:35;98471.56;;;20.21;45.42
17438;BME280;73152;52.198;5.422;2024-02-23T00:22:03;98472.75;;;20.25;44.20
17438;BME280;73152;52.198;5.422;2024-02-23T00:24:32;98473.22;;;20.22;44.12
17438;BME280;73152;52.198;5.422;2024-02-23T00:27:03;98472.91;;;20.19;45.64
17438;BME280;73152;52.198;5.422;2024-02-23T00:29:32;98473.69;;;20.19;45.44
17438;BME280;73152;52.198;5.422;2024-02-23T00:32:05;98479.63;;;20.21;45.82
17438;BME280;73152;52.198;5.422;2024-02-23T00:34:34;98480.72;;;20.20;45.56
17438;BME280;73152;52.198;5.422;2024-02-23T00:37:03;98485.63;;;20.23;45.62
17438;BME280;73152;52.198;5.422;2024-02-23T00:39:33;98483.81;;;20.29;44.80
17438;BME280;73152;52.198;5.422;2024-02-23T00:42:03;98487.81;;;20.26;45.05
17438;BME280;73152;52.198;5.422;2024-02-23T00:44:32;98483.72;;;20.24;45.17
17438;BME280;73152;52.198;5.422;2024-02-23T00:47:05;98498.00;;;20.24;46.50
17438;BME280;73152;52.198;5.422;2024-02-23T00:49:35;98497.19;;;20.24;46.42
17438;BME280;73152;52.198;5.422;2024-02-23T00:52:05;98510.41;;;20.25;46.92
17438;BME280;73152;52.198;5.422;2024-02-23T00:54:33;98506.22;;;20.34;46.20
17438;BME280;73152;52.198;5.422;2024-02-23T00:57:02;98512.09;;;20.31;45.88
17438;BME280;73152;52.198;5.422;2024-02-23T00:59:31;98518.84;;;20.34;45.80
17438;BME280;73152;52.198;5.422;2024-02-23T01:02:00;98521.88;;;20.37;46.04
17438;BME280;73152;52.198;5.422;2024-02-23T01:04:32;98525.19;;;20.44;43.58
17438;BME280;73152;52.198;5.422;2024-02-23T01:07:00;98526.09;;;20.33;45.70
17438;BME280;73152;52.198;5.422;2024-02-23T01:09:29;98534.69;;;20.30;46.40
17438;BME280;73152;52.198;5.422;2024-02-23T01:11:58;98544.69;;;20.35;45.80
17438;BME280;73152;52.198;5.422;2024-02-23T01:14:27;98550.63;;;20.37;46.09
17438;BME280;73152;52.198;5.422;2024-02-23T01:16:56;98550.44;;;20.43;44.72
17438;BME280;73152;52.198;5.422;2024-02-23T01:19:24;98550.63;;;20.37;44.88
17438;BME280;73152;52.198;5.422;2024-02-23T01:21:56;98556.00;;;20.37;45.14
17438;BME280;73152;52.198;5.422;2024-02-23T01:24:25;98558.94;;;20.35;45.05
17438;BME280;73152;52.198;5.422;2024-02-23T01:26:55;98544.84;;;20.28;45.82
17438;BME280;73152;52.198;5.422;2024-02-23T01:32:45;98584.06;;;20.24;45.25
17438;BME280;73152;52.198;5.422;2024-02-23T01:35:16;98580.88;;;20.27;44.41
17438;BME280;73152;52.198;5.422;2024-02-23T01:37:47;98574.44;;;20.28;43.76
17438;BME280;73152;52.198;5.422;2024-02-23T01:40:16;98585.25;;;20.17;43.74
17438;BME280;73152;52.198;5.422;2024-02-23T01:42:45;98584.78;;;20.03;44.70
17438;BME280;73152;52.198;5.422;2024-02-23T01:45:14;98585.94;;;20.07;44.99
17438;BME280;73152;52.198;5.422;2024-02-23T01:47:43;98580.88;;;20.10;45.19
17438;BME280;73152;52.198;5.422;2024-02-23T01:50:12;98583.81;;;20.09;44.86
17438;BME280;73152;52.198;5.422;2024-02-23T01:52:41;98590.88;;;20.15;44.02
17438;BME280;73152;52.198;5.422;2024-02-23T01:55:12;98600.41;;;20.06;43.81
17438;BME280;73152;52.198;5.422;2024-02-23T01:57:41;98598.72;;;20.00;44.18
17438;BME280;73152;52.198;5.422;2024-02-23T02:00:15;98600.34;;;20.01;45.29
17438;BME280;73152;52.198;5.422;2024-02-23T02:02:44;98606.78;;;20.00;46.09
17438;BME280;73152;52.198;5.422;2024-02-23T02:05:14;98612.81;;;20.07;45.98
17438;BME280;73152;52.198;5.422;2024-02-23T02:07:43;98617.13;;;20.08;46.43
17438;BME280;73152;52.198;5.422;2024-02-23T02:10:14;98616.28;;;20.07;46.43
17438;BME280;73152;52.198;5.422;2024-02-23T02:12:43;98634.16;;;20.14;46.23
17438;BME280;73152;52.198;5.422;2024-02-23T02:15:12;98627.47;;;20.16;46.18
17438;BME280;73152;52.198;5.422;2024-02-23T02:17:41;98623.84;;;20.22;46.56
17438;BME280;73152;52.198;5.422;2024-02-23T02:20:12;98621.97;;;20.23;45.92
17438;BME280;73152;52.198;5.422;2024-02-23T02:22:42;98612.59;;;20.25;45.76
17438;BME280;73152;52.198;5.422;2024-02-23T02:25:16;98612.59;;;20.25;46.17
17438;BME280;73152;52.198;5.422;2024-02-23T02:27:45;98595.63;;;20.25;46.78
17438;BME280;73152;52.198;5.422;2024-02-23T02:30:14;98598.91;;;20.27;46.17
17438;BME280;73152;52.198;5.422;2024-02-23T02:32:43;98611.13;;;20.34;45.88
17438;BME280;73152;52.198;5.422;2024-02-23T02:35:12;98611.19;;;20.39;44.88
17438;BME280;73152;52.198;5.422;2024-02-23T02:37:41;98620.88;;;20.40;44.96
17438;BME280;73152;52.198;5.422;2024-02-23T02:40:11;98617.47;;;20.28;45.94
17438;BME280;73152;52.198;5.422;2024-02-23T02:42:42;98620.41;;;20.43;44.35
17438;BME280;73152;52.198;5.422;2024-02-23T02:45:11;98617.47;;;20.28;45.56
17438;BME280;73152;52.198;5.422;2024-02-23T02:47:40;98628.22;;;20.28;44.39
17438;BME280;73152;52.198;5.422;2024-02-23T02:50:09;98621.22;;;20.27;45.51
17438;BME280;73152;52.198;5.422;2024-02-23T02:52:38;98628.47;;;20.27;46.11
17438;BME280;73152;52.198;5.422;2024-02-23T02:55:08;98623.44;;;20.30;44.78
17438;BME280;73152;52.198;5.422;2024-02-23T02:57:37;98628.16;;;20.23;45.35
17438;BME280;73152;52.198;5.422;2024-02-23T03:03:35;98636.38;;;20.33;44.00
17438;BME280;73152;52.198;5.422;2024-02-23T03:09:30;98644.31;;;20.23;45.86
17438;BME280;73152;52.198;5.422;2024-02-23T03:11:59;98650.72;;;20.22;45.46
17438;BME280;73152;52.198;5.422;2024-02-23T03:14:27;98649.75;;;20.28;45.06
17438;BME280;73152;52.198;5.422;2024-02-23T03:16:56;98652.69;;;20.27;45.58
17438;BME280;73152;52.198;5.422;2024-02-23T03:19:28;98657.81;;;20.28;44.49
17438;BME280;73152;52.198;5.422;2024-02-23T03:21:58;98662.69;;;20.31;44.37
17438;BME280;73152;52.198;5.422;2024-02-23T03:24:27;98657.31;;;20.31;44.61
17438;BME280;73152;52.198;5.422;2024-02-23T03:26:56;98656.19;;;20.27;43.68
17438;BME280;73152;52.198;5.422;2024-02-23T03:29:25;98664.56;;;20.14;46.25
17438;BME280;73152;52.198;5.422;2024-02-23T03:31:55;98667.81;;;20.16;46.09
17438;BME280;73152;52.198;5.422;2024-02-23T03:34:26;98665.31;;;20.26;45.09
17438;BME280;73152;52.198;5.422;2024-02-23T03:36:55;98675.50;;;20.24;45.78
17438;BME280;73152;52.198;5.422;2024-02-23T03:39:24;98675.03;;;20.27;45.98
17438;BME280;73152;52.198;5.422;2024-02-23T03:41:54;98678.84;;;20.31;44.49
17438;BME280;73152;52.198;5.422;2024-02-23T03:44:23;98682.84;;;20.29;44.72
17438;BME280;73152;52.198;5.422;2024-02-23T03:46:52;98679.56;;;20.27;45.61
17438;BME280;73152;52.198;5.422;2024-02-23T03:49:20;98681.94;;;20.23;46.17
17438;BME280;73152;52.198;5.422;2024-02-23T03:51:52;98683.75;;;20.34;44.53
17438;BME280;73152;52.198;5.422;2024-02-23T03:54:21;98687.47;;;20.33;43.84
17438;BME280;73152;52.198;5.422;2024-02-23T03:56:50;98684.47;;;20.30;44.18
17438;BME280;73152;52.198;5.422;2024-02-23T03:59:18;98680.31;;;20.22;44.59
17438;BME280;73152;52.198;5.422;2024-02-23T04:01:47;98675.94;;;20.21;44.37
17438;BME280;73152;52.198;5.422;2024-02-23T04:04:17;98691.09;;;20.10;46.15
17438;BME280;73152;52.198;5.422;2024-02-23T04:06:46;98688.94;;;20.24;44.69
17438;BME280;73152;52.198;5.422;2024-02-23T04:09:17;98688.25;;;20.17;45.45
17438;BME280;73152;52.198;5.422;2024-02-23T04:11:48;98700.88;;;20.17;45.19
17438;BME280;73152;52.198;5.422;2024-02-23T04:14:17;98692.09;;;20.21;44.53
17438;BME280;73152;52.198;5.422;2024-02-23T04:16:45;98698.53;;;20.20;43.76
17438;BME280;73152;52.198;5.422;2024-02-23T04:19:14;98692.97;;;20.10;44.90
17438;BME280;73152;52.198;5.422;2024-02-23T04:21:43;98692.03;;;20.16;44.42
17438;BME280;73152;52.198;5.422;2024-02-23T04:24:12;98705.22;;;20.18;44.44
17438;BME280;73152;52.198;5.422;2024-02-23T04:26:43;98699.84;;;20.18;44.25
17438;BME280;73152;52.198;5.422;2024-02-23T04:29:12;98709.34;;;20.08;44.71
17438;BME280;73152;52.198;5.422;2024-02-23T04:31:41;98709.63;;;20.07;44.90
17438;BME280;73152;52.198;5.422;2024-02-23T04:34:10;98711.78;;;20.10;45.34
17438;BME280;73152;52.198;5.422;2024-02-23T04:36:39;98717.69;;;20.07;45.39
17438;BME280;73152;52.198;5.422;2024-02-23T04:39:08;98718.16;;;20.04;46.21
17438;BME280;73152;52.198;5.422;2024-02-23T04:41:37;98725.34;;;20.15;44.56
17438;BME280;73152;52.198;5.422;2024-02-23T04:44:08;98717.69;;;20.07;46.41
17438;BME280;73152;52.198;5.422;2024-02-23T04:46:37;98729.41;;;20.18;45.10
17438;BME280;73152;52.198;5.422;2024-02-23T04:49:06;98736.56;;;20.12;46.25
17438;BME280;73152;52.198;5.422;2024-02-23T04:51:37;98734.47;;;20.14;46.08
17438;BME280;73152;52.198;5.422;2024-02-23T04:54:06;98738.22;;;20.13;46.22
17438;BME280;73152;52.198;5.422;2024-02-23T04:56:35;98740.44;;;20.16;46.61
17438;BME280;73152;52.198;5.422;2024-02-23T04:59:04;98733.16;;;20.17;46.67
17438;BME280;73152;52.198;5.422;2024-02-23T05:01:38;98746.94;;;20.20;46.07
17438;BME280;73152;52.198;5.422;2024-02-23T05:04:07;98740.16;;;20.18;46.89
17438;BME280;73152;52.198;5.422;2024-02-23T05:06:35;98739.56;;;20.27;45.36
17438;BME280;73152;52.198;5.422;2024-02-23T05:09:05;98733.38;;;20.27;45.82
17438;BME280;73152;52.198;5.422;2024-02-23T05:11:35;98743.19;;;20.33;44.90
17438;BME280;73152;52.198;5.422;2024-02-23T05:14:03;98735.22;;;20.26;45.84
17438;BME280;73152;52.198;5.422;2024-02-23T05:16:32;98743.19;;;20.21;46.11
17438;BME280;73152;52.198;5.422;2024-02-23T05:19:04;98737.22;;;20.19;46.72
17438;BME280;73152;52.198;5.422;2024-02-23T05:21:33;98731.97;;;20.24;46.66
17438;BME280;73152;52.198;5.422;2024-02-23T05:24:02;98739.56;;;20.27;46.08
17438;BME280;73152;52.198;5.422;2024-02-23T05:26:32;98744.94;;;20.27;46.04
17438;BME280;73152;52.198;5.422;2024-02-23T05:29:00;98749.25;;;20.28;45.79
17438;BME280;73152;52.198;5.422;2024-02-23T05:31:46;98747.91;;;20.26;46.46
17438;BME280;73152;52.198;5.422;2024-02-23T05:34:18;98738.75;;;20.27;46.47
17438;BME280;73152;52.198;5.422;2024-02-23T05:36:47;98744.53;;;20.35;45.57
17438;BME280;73152;52.198;5.422;2024-02-23T05:39:17;98747.22;;;20.35;45.49
17438;BME280;73152;52.198;5.422;2024-02-23T05:41:46;98751.81;;;20.35;45.72
17438;BME280;73152;52.198;5.422;2024-02-23T05:44:14;98744.94;;;20.27;46.77
17438;BME280;73152;52.198;5.422;2024-02-23T05:46:43;98743.88;;;20.28;46.63
17438;BME280;73152;52.198;5.422;2024-02-23T05:49:13;98746.19;;;20.36;45.62
17438;BME280;73152;52.198;5.422;2024-02-23T05:51:44;98745.63;;;20.34;46.37
17438;BME280;73152;52.198;5.422;2024-02-23T05:54:13;98751.00;;;20.34;45.76
17438;BME280;73152;52.198;5.422;2024-02-23T05:56:43;98744.06;;;20.38;45.30
17438;BME280;73152;52.198;5.422;2024-02-23T05:59:13;98737.28;;;20.36;46.22
17438;BME280;73152;52.198;5.422;2024-02-23T06:01:42;98745.13;;;20.37;45.92
17438;BME280;73152;52.198;5.422;2024-02-23T06:04:11;98739.66;;;20.32;46.08
17438;BME280;73152;52.198;5.422;2024-02-23T06:10:09;98741.06;;;20.35;45.25
17438;BME280;73152;52.198;5.422;2024-02-23T06:12:38;98746.09;;;20.31;46.10
17438;BME280;73152;52.198;5.422;2024-02-23T06:15:08;98743.97;;;20.33;46.43
17438;BME280;73152;52.198;5.422;2024-02-23T06:17:38;98739.09;;;20.30;46.18
17438;BME280;73152;52.198;5.422;2024-02-23T06:20:10;98749.59;;;20.32;46.27
17438;BME280;73152;52.198;5.422;2024-02-23T06:22:39;98752.69;;;20.40;45.27
17438;BME280;73152;52.198;5.422;2024-02-23T06:25:10;98754.09;;;20.43;44.70
17438;BME280;73152;52.198;5.422;2024-02-23T06:27:39;98763.03;;;20.32;46.06
17438;BME280;73152;52.198;5.422;2024-02-23T06:30:09;98756.38;;;20.34;45.23
17438;BME280;73152;52.198;5.422;2024-02-23T06:32:39;98757.97;;;20.35;45.34
17438;BME280;73152;52.198;5.422;2024-02-23T06:35:09;98757.97;;;20.35;44.81
17438;BME280;73152;52.198;5.422;2024-02-23T06:37:40;98763.47;;;20.40;44.72
17438;BME280;73152;52.198;5.422;2024-02-23T06:40:12;98759.53;;;20.31;45.80
17438;BME280;73152;52.198;5.422;2024-02-23T06:42:41;98771.22;;;20.37;45.20
17438;BME280;73152;52.198;5.422;2024-02-23T06:45:10;98766.66;;;20.37;45.34
17438;BME280;73152;52.198;5.422;2024-02-23T06:47:39;98769.66;;;20.41;44.44
17438;BME280;73152;52.198;5.422;2024-02-23T06:50:08;98769.25;;;20.32;44.69
17438;BME280;73152;52.198;5.422;2024-02-23T06:52:37;98768.19;;;20.33;44.45
17438;BME280;73152;52.198;5.422;2024-02-23T06:55:07;98764.09;;;20.31;44.46
17438;BME280;73152;52.198;5.422;2024-02-23T06:57:38;98751.00;;;20.34;44.14
17438;BME280;73152;52.198;5.422;2024-02-23T07:00:09;98759.44;;;20.26;45.16
17438;BME280;73152;52.198;5.422;2024-02-23T07:02:38;98760.75;;;20.24;45.35
17438;BME280;73152;52.198;5.422;2024-02-23T07:05:08;98764.34;;;20.29;44.99
17438;BME280;73152;52.198;5.422;2024-02-23T07:07:37;98761.09;;;20.27;45.03
17438;BME280;73152;52.198;5.422;2024-02-23T07:10:07;98761.09;;;20.27;45.26
17438;BME280;73152;52.198;5.422;2024-02-23T07:12:40;98769.25;;;20.32;45.31
17438;BME280;73152;52.198;5.422;2024-02-23T07:15:10;98764.44;;;20.34;44.80
17438;BME280;73152;52.198;5.422;2024-02-23T07:17:39;98762.22;;;20.31;44.27
17438;BME280;73152;52.198;5.422;2024-02-23T07:20:11;98766.47;;;20.27;45.95
17438;BME280;73152;52.198;5.422;2024-02-23T07:22:43;98768.69;;;20.30;45.63
17438;BME280;73152;52.198;5.422;2024-02-23T07:25:16;98763.88;;;20.32;45.27
17438;BME280;73152;52.198;5.422;2024-02-23T07:27:49;98763.31;;;20.30;45.64
17438;BME280;73152;52.198;5.422;2024-02-23T07:30:18;98774.56;;;20.44;44.19
17438;BME280;73152;52.198;5.422;2024-02-23T07:32:48;98768.09;;;20.45;43.84
17438;BME280;73152;52.198;5.422;2024-02-23T07:35:16;98763.97;;;20.37;44.39
17438;BME280;73152;52.198;5.422;2024-02-23T07:37:45;98756.22;;;20.41;44.43
17438;BME280;73152;52.198;5.422;2024-02-23T07:40:15;98761.59;;;20.41;44.13
17438;BME280;73152;52.198;5.422;2024-02-23T07:42:43;98753.78;;;20.39;44.25
17438;BME280;73152;52.198;5.422;2024-02-23T07:45:15;98753.94;;;20.49;42.97
17438;BME280;73152;52.198;5.422;2024-02-23T07:47:44;98751.97;;;20.45;43.56
17438;BME280;73152;52.198;5.422;2024-02-23T07:50:13;98748.72;;;20.43;44.29
17438;BME280;73152;52.198;5.422;2024-02-23T07:52:41;98743.31;;;20.43;44.48
17438;BME280;73152;52.198;5.422;2024-02-23T07:55:10;98740.41;;;20.44;44.05
17438;BME280;73152;52.198;5.422;2024-02-23T07:57:39;98732.56;;;20.43;44.82
17438;BME280;73152;52.198;5.422;2024-02-23T08:00:09;98734.22;;;20.44;45.10
17438;BME280;73152;52.198;5.422;2024-02-23T08:02:41;98747.41;;;20.45;44.98
17438;BME280;73152;52.198;5.422;2024-02-23T08:05:10;98728.19;;;20.53;44.30
17438;BME280;73152;52.198;5.422;2024-02-23T08:07:39;98729.72;;;20.49;44.70
17438;BME280;73152;52.198;5.422;2024-02-23T08:10:09;98728.66;;;20.50;44.28
17438;BME280;73152;52.198;5.422;2024-02-23T08:12:38;98724.66;;;20.53;44.32
17438;BME280;73152;52.198;5.422;2024-02-23T08:15:09;98726.06;;;20.55;43.77
17438;BME280;73152;52.198;5.422;2024-02-23T08:17:40;98734.03;;;20.50;44.71
17438;BME280;73152;52.198;5.422;2024-02-23T08:20:10;98717.00;;;20.61;42.81
17438;BME280;73152;52.198;5.422;2024-02-23T08:22:39;98724.09;;;20.51;44.33
17438;BME280;73152;52.198;5.422;2024-02-23T08:25:10;98718.06;;;20.60;43.48
17438;BME280;73152;52.198;5.422;2024-02-23T08:27:40;98718.00;;;20.55;43.15
17438;BME280;73152;52.198;5.422;2024-02-23T08:30:10;98723.38;;;20.55;43.26
17438;BME280;73152;52.198;5.422;2024-02-23T08:32:42;98717.72;;;20.57;43.25
17438;BME280;73152;52.198;5.422;2024-02-23T08:35:11;98708.19;;;20.49;43.80
17438;BME280;73152;52.198;5.422;2024-02-23T08:37:41;98728.09;;;20.48;44.35
17438;BME280;73152;52.198;5.422;2024-02-23T08:40:11;98705.00;;;20.52;43.91
17438;BME280;73152;52.198;5.422;2024-02-23T08:42:40;98709.09;;;20.55;44.07
17438;BME280;73152;52.198;5.422;2024-02-23T08:45:10;98704.19;;;20.52;44.02
17438;BME280;73152;52.198;5.422;2024-02-23T08:47:42;98705.66;;;20.59;43.25
17438;BME280;73152;52.198;5.422;2024-02-23T08:50:11;98707.44;;;20.54;44.00
17438;BME280;73152;52.198;5.422;2024-02-23T08:52:40;98707.22;;;20.55;43.73
17438;BME280;73152;52.198;5.422;2024-02-23T08:55:09;98697.28;;;20.56;44.07
17438;BME280;73152;52.198;5.422;2024-02-23T08:57:38;98713.16;;;20.57;43.57
17438;BME280;73152;52.198;5.422;2024-02-23T09:00:10;98713.44;;;20.56;43.86
17438;BME280;73152;52.198;5.422;2024-02-23T09:02:41;98712.34;;;20.57;44.05
17438;BME280;73152;52.198;5.422;2024-02-23T09:05:10;98709.34;;;20.53;43.98
17438;BME280;73152;52.198;5.422;2024-02-23T09:07:39;98710.66;;;20.51;43.74
17438;BME280;73152;52.198;5.422;2024-02-23T09:10:09;98713.34;;;20.51;44.36
17438;BME280;73152;52.198;5.422;2024-02-23T09:12:38;98708.59;;;20.58;42.77
17438;BME280;73152;52.198;5.422;2024-02-23T09:15:08;98719.59;;;20.56;43.52
17438;BME280;73152;52.198;5.422;2024-02-23T09:17:37;98724.25;;;20.61;43.31
17438;BME280;73152;52.198;5.422;2024-02-23T09:20:11;98737.97;;;20.59;42.72
17438;BME280;73152;52.198;5.422;2024-02-23T09:22:40;98722.28;;;20.56;43.43
17438;BME280;73152;52.198;5.422;2024-02-23T09:25:09;98726.38;;;20.42;44.48
17438;BME280;73152;52.198;5.422;2024-02-23T09:27:38;98720.59;;;20.50;43.80
17438;BME280;73152;52.198;5.422;2024-02-23T09:30:12;98721.63;;;20.49;44.39
17438;BME280;73152;52.198;5.422;2024-02-23T09:32:41;98728.66;;;20.50;43.91
17438;BME280;73152;52.198;5.422;2024-02-23T09:35:13;98727.19;;;20.59;43.47
17438;BME280;73152;52.198;5.422;2024-02-23T09:37:41;98721.16;;;20.52;44.36
17438;BME280;73152;52.198;5.422;2024-02-23T09:40:11;98719.03;;;20.54;44.35
17438;BME280;73152;52.198;5.422;2024-02-23T09:42:42;98734.69;;;20.57;43.86
17438;BME280;73152;52.198;5.422;2024-02-23T09:45:12;98721.50;;;20.56;43.95
17438;BME280;73152;52.198;5.422;2024-02-23T09:47:41;98734.59;;;20.52;44.75
17438;BME280;73152;52.198;5.422;2024-02-23T09:50:13;98738.44;;;20.56;44.24
17438;BME280;73152;52.198;5.422;2024-02-23T09:52:43;98741.38;;;20.55;44.82
17438;BME280;73152;52.198;5.422;2024-02-23T09:55:12;98746.59;;;20.61;44.46
17438;BME280;73152;52.198;5.422;2024-02-23T09:57:43;98761.44;;;20.64;43.06
17438;BME280;73152;52.198;5.422;2024-02-23T10:00:16;98765.59;;;20.55;43.85
17438;BME280;73152;52.198;5.422;2024-02-23T10:02:46;98754.59;;;20.56;43.86
17438;BME280;73152;52.198;5.422;2024-02-23T10:05:19;98749.53;;;20.60;43.72
17438;BME280;73152;52.198;5.422;2024-02-23T10:07:50;98738.59;;;20.66;43.00
17438;BME280;73152;52.198;5.422;2024-02-23T10:10:24;98734.28;;;20.65;43.29
17438;BME280;73152;52.198;5.422;2024-02-23T10:12:58;98736.66;;;20.62;43.60
17438;BME280;73152;52.198;5.422;2024-02-23T10:15:29;98755.31;;;20.68;43.55
17438;BME280;73152;52.198;5.422;2024-02-23T10:17:59;98736.56;;;20.73;43.10
17438;BME280;73152;52.198;5.422;2024-02-23T10:20:31;98752.53;;;20.63;43.69
17438;BME280;73152;52.198;5.422;2024-02-23T10:23:00;98752.16;;;20.71;43.19
17438;BME280;73152;52.198;5.422;2024-02-23T10:25:33;98755.72;;;20.77;43.39
17438;BME280;73152;52.198;5.422;2024-02-23T10:28:03;98765.25;;;20.85;42.15
17438;BME280;73152;52.198;5.422;2024-02-23T10:30:32;98763.13;;;20.70;43.48
17438;BME280;73152;52.198;5.422;2024-02-23T10:33:01;98767.09;;;20.79;42.30
17438;BME280;73152;52.198;5.422;2024-02-23T10:35:36;98774.66;;;20.65;43.92
17438;BME280;73152;52.198;5.422;2024-02-23T10:38:08;98780.19;;;20.75;42.92
17438;BME280;73152;52.198;5.422;2024-02-23T10:40:39;98793.25;;;20.84;42.53
17438;BME280;73152;52.198;5.422;2024-02-23T10:43:12;98784.09;;;20.85;42.24
17438;BME280;73152;52.198;5.422;2024-02-23T10:45:46;98778.59;;;20.74;42.63
17438;BME280;73152;52.198;5.422;2024-02-23T10:48:16;98794.56;;;20.64;43.48
17438;BME280;73152;52.198;5.422;2024-02-23T10:50:50;98784.53;;;20.76;42.02
17438;BME280;73152;52.198;5.422;2024-02-23T10:53:19;98796.19;;;20.82;41.39
17438;BME280;73152;52.198;5.422;2024-02-23T10:55:56;98795.13;;;20.66;42.32
17438;BME280;73152;52.198;5.422;2024-02-23T10:58:25;98798.06;;;20.65;42.68
17438;BME280;73152;52.198;5.422;2024-02-23T11:01:00;98791.03;;;20.64;43.21
17438;BME280;73152;52.198;5.422;2024-02-23T11:03:32;98797.00;;;20.66;43.58
17438;BME280;73152;52.198;5.422;2024-02-23T11:06:06;98794.56;;;20.81;42.55
17438;BME280;73152;52.198;5.422;2024-02-23T11:08:35;98798.00;;;20.76;42.95
17438;BME280;73152;52.198;5.422;2024-02-23T11:11:09;98810.63;;;20.76;42.76
17438;BME280;73152;52.198;5.422;2024-02-23T11:13:42;98805.09;;;20.83;42.62
17438;BME280;73152;52.198;5.422;2024-02-23T11:16:21;98812.34;;;20.82;41.76
17438;BME280;73152;52.198;5.422;2024-02-23T11:19:04;98813.16;;;20.83;42.02
17438;BME280;73152;52.198;5.422;2024-02-23T11:21:37;98804.16;;;20.77;42.17
17438;BME280;73152;52.198;5.422;2024-02-23T11:24:07;98809.56;;;20.77;41.66
17438;BME280;73152;52.198;5.422;2024-02-23T11:26:37;98804.78;;;20.79;42.40
17438;BME280;73152;52.198;5.422;2024-02-23T11:29:12;98807.22;;;20.81;41.47
17438;BME280;73152;52.198;5.422;2024-02-23T11:31:46;98809.25;;;20.73;41.59
17438;BME280;73152;52.198;5.422;2024-02-23T11:34:22;98816.28;;;20.74;41.40
17438;BME280;73152;52.198;5.422;2024-02-23T11:36:55;98806.81;;;20.72;41.60
17438;BME280;73152;52.198;5.422;2024-02-23T11:39:26;98795.03;;;20.61;41.88
17438;BME280;73152;52.198;5.422;2024-02-23T11:41:58;98801.56;;;20.65;41.55
17438;BME280;73152;52.198;5.422;2024-02-23T11:44:27;98801.16;;;20.57;41.69
17438;BME280;73152;52.198;5.422;2024-02-23T11:46:58;98805.31;;;20.64;41.74
17438;BME280;73152;52.198;5.422;2024-02-23T11:50:08;98808.91;;;20.70;41.50
17438;BME280;73152;52.198;5.422;2024-02-23T11:52:40;98794.41;;;20.71;41.24
17438;BME280;73152;52.198;5.422;2024-02-23T11:55:09;98811.38;;;20.71;41.46
17438;BME280;73152;52.198;5.422;2024-02-23T11:57:38;98805.06;;;20.66;41.83
17438;BME280;73152;52.198;5.422;2024-02-23T12:00:08;98813.66;;;20.63;41.12
17438;BME280;73152;52.198;5.422;2024-02-23T12:02:37;98817.53;;;20.55;42.48
17438;BME280;73152;52.198;5.422;2024-02-23T12:05:07;98818.22;;;20.62;41.23
17438;BME280;73152;52.198;5.422;2024-02-23T12:07:40;98813.31;;;20.59;41.83
17438;BME280;73152;52.198;5.422;2024-02-23T12:10:09;98826.66;;;20.54;41.70
17438;BME280;73152;52.198;5.422;2024-02-23T12:12:39;98821.72;;;20.63;41.87
17438;BME280;73152;52.198;5.422;2024-02-23T12:15:09;98822.94;;;20.55;42.81
17438;BME280;73152;52.198;5.422;2024-02-23T12:17:46;98818.22;;;20.62;42.14
17438;BME280;73152;52.198;5.422;2024-02-23T12:20:16;98825.03;;;20.70;41.62
17438;BME280;73152;52.198;5.422;2024-02-23T12:22:50;98837.94;;;20.68;41.34
17438;BME280;73152;52.198;5.422;2024-02-23T12:25:19;98833.28;;;20.63;41.90
17438;BME280;73152;52.198;5.422;2024-02-23T12:27:54;98833.94;;;20.70;41.48
17438;BME280;73152;52.198;5.422;2024-02-23T12:30:24;98831.25;;;20.70;41.84
17438;BME280;73152;52.198;5.422;2024-02-23T12:33:04;98831.25;;;20.70;42.36
17438;BME280;73152;52.198;5.422;2024-02-23T12:35:34;98836.25;;;20.78;42.80
17438;BME280;73152;52.198;5.422;2024-02-23T12:38:06;98848.25;;;20.88;41.57
17438;BME280;73152;52.198;5.422;2024-02-23T12:40:35;98840.16;;;20.88;41.52
17438;BME280;73152;52.198;5.422;2024-02-23T12:43:04;98852.50;;;20.84;42.17
17438;BME280;73152;52.198;5.422;2024-02-23T12:45:33;98852.91;;;20.92;41.51
17438;BME280;73152;52.198;5.422;2024-02-23T12:48:01;98852.31;;;20.90;41.95
17438;BME280;73152;52.198;5.422;2024-02-23T12:50:31;98850.38;;;20.86;42.07
17438;BME280;73152;52.198;5.422;2024-02-23T12:53:00;98857.53;;;20.97;41.86
17438;BME280;73152;52.198;5.422;2024-02-23T12:55:32;98857.72;;;20.90;42.05
17438;BME280;73152;52.198;5.422;2024-02-23T12:58:02;98859.06;;;21.04;41.20
17438;BME280;73152;52.198;5.422;2024-02-23T13:00:31;98846.53;;;20.98;41.25
17438;BME280;73152;52.198;5.422;2024-02-23T13:06:59;98851.28;;;21.08;40.63
17438;BME280;73152;52.198;5.422;2024-02-23T13:09:28;98860.31;;;21.02;40.75
17438;BME280;73152;52.198;5.422;2024-02-23T13:11:59;98867.22;;;21.09;40.38
17438;BME280;73152;52.198;5.422;2024-02-23T13:14:28;98872.06;;;20.96;41.72
17438;BME280;73152;52.198;5.422;2024-02-23T13:16:57;98868.75;;;21.05;40.79
17438;BME280;73152;52.198;5.422;2024-02-23T13:19:26;98878.84;;;20.98;41.52
17438;BME280;73152;52.198;5.422;2024-02-23T13:21:55;98884.94;;;20.94;41.53
17438;BME280;73152;52.198;5.422;2024-02-23T13:24:26;98875.47;;;20.91;42.65
17438;BME280;73152;52.198;5.422;2024-02-23T13:26:55;98883.66;;;20.96;41.88
17438;BME280;73152;52.198;5.422;2024-02-23T13:29:26;98881.88;;;21.02;41.48
17438;BME280;73152;52.198;5.422;2024-02-23T13:31:55;98882.03;;;21.12;40.99
17438;BME280;73152;52.198;5.422;2024-02-23T13:34:24;98892.19;;;21.05;41.00